createdAt,value
2019-04-21T00:00:35.494Z,35.60
2019-04-21T00:03:11.699Z,35.80
2019-04-21T00:05:58.868Z,36.20
2019-04-21T00:08:33.554Z,36.80
2019-04-21T00:11:03.023Z,38.50
2019-04-21T00:13:25.387Z,39.60
2019-04-21T00:15:49.886Z,39.40
2019-04-21T00:18:44.635Z,39.40
2019-04-21T00:21:14.907Z,40.90
2019-04-21T00:23:56.196Z,41.70
2019-04-21T00:26:32.130Z,41.70
2019-04-21T00:29:03.721Z,42.20
2019-04-21T00:31:28.633Z,42.20
2019-04-21T00:33:47.753Z,42.20
2019-04-21T00:36:22.627Z,41.90
2019-04-21T00:39:18.614Z,42.30
2019-04-21T00:41:36.648Z,42.60
2019-04-21T00:44:00.824Z,42.90
2019-04-21T00:46:35.752Z,42.50
2019-04-21T00:49:06.004Z,43.00
2019-04-21T00:51:55.451Z,43.10
2019-04-21T00:54:29.515Z,43.60
2019-04-21T00:57:01.332Z,44.30
2019-04-21T00:59:25.945Z,44.70
2019-04-21T01:01:50.785Z,44.00
2019-04-21T01:04:26.354Z,44.60
2019-04-21T01:06:56.169Z,44.50
2019-04-21T01:09:23.709Z,46.00
2019-04-21T01:12:03.714Z,44.90
2019-04-21T01:14:36.915Z,45.40
2019-04-21T01:17:05.013Z,45.00
2019-04-21T01:19:26.937Z,44.50
2019-04-21T01:21:41.797Z,45.10
2019-04-21T01:24:19.047Z,44.70
2019-04-21T01:26:52.232Z,43.40
2019-04-21T01:29:37.434Z,42.90
2019-04-21T01:32:13.521Z,42.60
2019-04-21T01:34:39.110Z,41.90
2019-04-21T01:37:06.332Z,43.30
2019-04-21T01:39:42.685Z,42.70
2019-04-21T01:42:11.259Z,43.70
2019-04-21T01:44:43.049Z,43.00
2019-04-21T01:47:08.371Z,43.90
2019-04-21T01:49:34.927Z,44.60
2019-04-21T01:52:27.835Z,44.80
2019-04-21T01:55:10.313Z,44.10
2019-04-21T01:57:49.484Z,45.10
2019-04-21T02:00:31.518Z,46.00
2019-04-21T02:03:10.803Z,45.10
2019-04-21T02:05:39.260Z,44.70
2019-04-21T02:08:07.447Z,45.80
2019-04-21T02:10:41.490Z,46.50
2019-04-21T02:13:09.111Z,44.80
2019-04-21T02:15:42.336Z,44.20
2019-04-21T02:18:13.241Z,43.50
2019-04-21T02:20:31.765Z,44.70
2019-04-21T02:25:47.664Z,46.80
2019-04-21T02:28:24.007Z,48.30
2019-04-21T02:31:06.160Z,49.80
2019-04-21T02:36:15.537Z,50.40
2019-04-21T02:38:39.794Z,50.40
2019-04-21T02:40:57.952Z,51.90
2019-04-21T02:46:04.413Z,52.60
2019-04-21T02:48:38.882Z,52.70
2019-04-21T02:54:06.840Z,52.10
2019-04-21T02:56:14.548Z,53.00
2019-04-21T02:58:54.160Z,53.90
2019-04-21T03:01:46.323Z,53.90
2019-04-21T03:04:18.550Z,54.10
2019-04-21T03:07:13.305Z,55.40
2019-04-21T03:09:39.179Z,55.50
2019-04-21T03:12:11.177Z,56.60
2019-04-21T03:14:56.183Z,57.00
2019-04-21T03:17:14.282Z,56.50
2019-04-21T03:19:55.532Z,57.10
2019-04-21T03:25:23.462Z,56.40
2019-04-21T03:27:40.155Z,57.30
2019-04-21T03:29:55.472Z,57.30
2019-04-21T03:32:47.998Z,57.40
2019-04-21T03:37:25.191Z,57.30
2019-04-21T03:40:06.786Z,57.80
2019-04-21T03:42:36.793Z,57.80
2019-04-21T03:44:52.065Z,58.30
2019-04-21T03:50:14.667Z,59.90
2019-04-21T03:55:51.479Z,60.10
2019-04-21T04:01:02.788Z,61.90
2019-04-21T04:14:07.614Z,63.70
2019-04-21T04:19:01.544Z,64.20
2019-04-21T04:21:37.556Z,64.80
2019-04-21T04:24:09.088Z,64.90
2019-04-21T04:26:41.048Z,64.80
2019-04-21T04:29:12.142Z,65.30
2019-04-21T04:34:12.784Z,64.90
2019-04-21T04:39:45.659Z,65.10
2019-04-21T04:49:47.954Z,60.70
2019-04-21T04:57:42.032Z,58.10
2019-04-21T05:02:30.447Z,54.30
2019-04-21T05:04:59.265Z,53.20
2019-04-21T05:07:27.439Z,51.50
2019-04-21T05:12:17.569Z,48.80
2019-04-21T05:14:57.067Z,47.50
2019-04-21T05:17:28.817Z,46.60
2019-04-21T05:24:44.006Z,44.00
2019-04-21T05:27:29.486Z,44.10
2019-04-21T05:30:08.386Z,44.20
2019-04-21T05:33:03.641Z,43.90
2019-04-21T05:36:09.151Z,43.60
2019-04-21T05:38:57.138Z,44.10
2019-04-21T05:41:20.751Z,43.30
2019-04-21T05:44:03.828Z,43.40
2019-04-21T05:46:32.547Z,43.00
2019-04-21T05:49:02.712Z,43.10
2019-04-21T05:51:37.227Z,43.90
2019-04-21T05:54:21.380Z,45.50
2019-04-21T05:56:43.835Z,45.50
2019-04-21T05:59:15.200Z,46.20
2019-04-21T06:01:48.581Z,46.60
2019-04-21T06:04:34.159Z,45.50
2019-04-21T06:06:48.042Z,45.50
2019-04-21T06:09:19.043Z,45.30
2019-04-21T06:11:51.230Z,44.60
2019-04-21T06:14:23.114Z,44.40
2019-04-21T06:16:55.586Z,41.40
2019-04-21T06:19:31.218Z,42.10
2019-04-21T06:21:51.184Z,39.90
2019-04-21T06:24:21.858Z,40.80
2019-04-21T06:29:28.556Z,40.60
2019-04-21T06:34:40.784Z,41.70
2019-04-21T06:40:15.699Z,41.80
2019-04-21T06:42:32.476Z,41.80
2019-04-21T06:45:08.779Z,42.20
2019-04-21T06:50:07.670Z,41.10
2019-04-21T06:55:13.880Z,39.20
2019-04-21T06:57:39.975Z,38.70
2019-04-21T07:00:11.772Z,37.80
2019-04-21T07:02:54.896Z,36.70
2019-04-21T07:05:15.438Z,36.80
2019-04-21T07:08:08.836Z,35.40
2019-04-21T07:10:14.981Z,34.80
2019-04-21T07:12:48.284Z,33.70
2019-04-21T07:15:22.318Z,32.40
2019-04-21T07:17:53.600Z,32.20
2019-04-21T07:20:18.338Z,32.20
2019-04-21T07:22:59.506Z,31.80
2019-04-21T07:25:22.635Z,32.00
2019-04-21T07:27:52.751Z,31.50
2019-04-21T07:30:31.692Z,32.20
2019-04-21T07:33:05.575Z,32.60
2019-04-21T07:35:28.525Z,31.90
2019-04-21T07:37:57.671Z,32.20
2019-04-21T07:40:24.704Z,33.30
2019-04-21T07:43:01.318Z,32.10
2019-04-21T07:45:30.227Z,31.90
2019-04-21T07:48:12.705Z,31.50
2019-04-21T07:51:07.537Z,31.90
2019-04-21T07:53:45.654Z,31.30
2019-04-21T07:55:53.291Z,30.30
2019-04-21T07:58:47.683Z,29.80
2019-04-21T08:01:12.410Z,28.60
2019-04-21T08:03:46.583Z,27.20
2019-04-21T08:06:12.780Z,27.80
2019-04-21T08:08:49.424Z,27.80
2019-04-21T08:11:16.672Z,27.70
2019-04-21T08:14:03.506Z,26.50
2019-04-21T08:16:28.638Z,26.70
2019-04-21T08:18:55.009Z,27.20
2019-04-21T08:21:23.614Z,27.00
2019-04-21T08:23:54.166Z,26.50
2019-04-21T08:26:33.796Z,25.80
2019-04-21T08:29:04.136Z,26.80
2019-04-21T08:31:34.360Z,26.80
2019-04-21T08:34:01.716Z,26.60
2019-04-21T08:36:30.936Z,26.70
2019-04-21T08:39:03.234Z,26.70
2019-04-21T08:41:37.432Z,26.70
2019-04-21T08:44:16.420Z,26.30
2019-04-21T08:46:38.738Z,26.60
2019-04-21T08:49:10.910Z,27.00
2019-04-21T08:51:43.625Z,27.30
2019-04-21T08:54:17.059Z,26.60
2019-04-21T08:57:06.156Z,26.60
2019-04-21T08:59:51.813Z,27.10
2019-04-21T09:02:34.013Z,27.60
2019-04-21T09:04:59.214Z,28.00
2019-04-21T09:07:35.905Z,28.20
2019-04-21T09:09:57.540Z,28.50
2019-04-21T09:12:33.146Z,27.50
2019-04-21T09:15:01.751Z,26.40
2019-04-21T09:17:28.561Z,27.00
2019-04-21T09:20:13.933Z,27.50
2019-04-21T09:22:37.836Z,27.20
2019-04-21T09:25:01.642Z,27.30
2019-04-21T09:27:36.660Z,27.60
2019-04-21T09:29:55.692Z,27.70
2019-04-21T09:32:26.835Z,27.40
2019-04-21T09:34:53.081Z,27.00
2019-04-21T09:37:33.015Z,26.60
2019-04-21T09:39:57.137Z,26.70
2019-04-21T09:42:33.268Z,26.90
2019-04-21T09:45:00.671Z,27.70
2019-04-21T09:47:36.529Z,26.20
2019-04-21T09:49:58.597Z,26.10
2019-04-21T09:52:37.542Z,25.00
2019-04-21T09:55:06.962Z,25.10
2019-04-21T09:57:41.617Z,25.60
2019-04-21T10:00:11.954Z,25.90
2019-04-21T10:02:42.607Z,26.10
2019-04-21T10:05:07.768Z,25.40
2019-04-21T10:07:41.718Z,26.80
2019-04-21T10:10:10.481Z,25.70
2019-04-21T10:12:41.113Z,23.90
2019-04-21T10:15:10.776Z,24.20
2019-04-21T10:17:47.441Z,24.20
2019-04-21T10:20:17.216Z,23.10
2019-04-21T10:22:46.869Z,22.90
2019-04-21T10:25:16.770Z,26.20
2019-04-21T10:27:47.225Z,23.50
2019-04-21T10:30:17.119Z,23.50
2019-04-21T10:32:46.572Z,22.40
2019-04-21T10:35:20.669Z,19.90
2019-04-21T10:37:58.181Z,21.20
2019-04-21T10:40:19.363Z,20.90
2019-04-21T10:42:49.965Z,21.70
2019-04-21T10:45:21.087Z,21.70
2019-04-21T10:47:50.601Z,22.40
2019-04-21T10:50:20.453Z,21.50
2019-04-21T10:53:05.429Z,19.60
2019-04-21T10:55:48.640Z,19.30
2019-04-21T10:58:11.904Z,20.10
2019-04-21T11:00:42.281Z,20.20
2019-04-21T11:03:35.250Z,21.10
2019-04-21T11:06:06.439Z,18.50
2019-04-21T11:08:41.673Z,19.00
2019-04-21T11:11:07.980Z,19.20
2019-04-21T11:13:38.875Z,19.80
2019-04-21T11:16:08.858Z,19.90
2019-04-21T11:18:39.790Z,18.00
2019-04-21T11:21:09.377Z,16.40
2019-04-21T11:23:40.346Z,16.60
2019-04-21T11:26:10.029Z,17.20
2019-04-21T11:28:40.811Z,16.70
2019-04-21T11:31:11.107Z,15.80
2019-04-21T11:33:40.562Z,15.50
2019-04-21T11:36:11.149Z,15.20
2019-04-21T11:39:16.607Z,14.90
2019-04-21T11:41:34.037Z,15.30
2019-04-21T11:44:04.986Z,14.90
2019-04-21T11:46:36.166Z,15.00
2019-04-21T11:49:06.341Z,15.90
2019-04-21T11:51:37.301Z,14.60
2019-04-21T11:54:06.909Z,14.40
2019-04-21T11:56:36.990Z,14.30
2019-04-21T11:59:07.850Z,14.30
2019-04-21T12:01:37.440Z,13.50
2019-04-21T12:04:07.608Z,13.40
2019-04-21T12:06:43.072Z,13.40
2019-04-21T12:09:09.942Z,12.90
2019-04-21T12:11:39.528Z,13.40
2019-04-21T12:14:09.970Z,13.60
2019-04-21T12:16:39.447Z,13.60
2019-04-21T12:19:09.190Z,14.10
2019-04-21T12:21:49.217Z,12.70
2019-04-21T12:24:11.041Z,12.80
2019-04-21T12:26:40.557Z,13.40
2019-04-21T12:29:10.082Z,14.40
2019-04-21T12:31:53.898Z,13.70
2019-04-21T12:34:23.755Z,13.40
2019-04-21T12:36:54.885Z,13.30
2019-04-21T12:39:25.082Z,14.40
2019-04-21T12:41:54.488Z,15.30
2019-04-21T12:44:24.612Z,13.40
2019-04-21T12:46:54.126Z,13.40
2019-04-21T12:49:23.559Z,13.40
2019-04-21T12:51:53.519Z,12.60
2019-04-21T12:54:23.808Z,13.70
2019-04-21T12:56:53.781Z,12.30
2019-04-21T12:59:24.488Z,12.70
2019-04-21T13:01:54.848Z,12.70
2019-04-21T13:04:24.405Z,12.80
2019-04-21T13:06:55.210Z,13.80
2019-04-21T13:09:27.539Z,13.80
2019-04-21T13:11:57.199Z,14.50
2019-04-21T13:14:26.673Z,13.90
2019-04-21T13:16:57.335Z,13.10
2019-04-21T13:19:27.361Z,12.00
2019-04-21T13:21:58.175Z,12.00
2019-04-21T13:24:27.653Z,13.60
2019-04-21T13:26:59.540Z,13.10
2019-04-21T13:29:28.526Z,13.20
2019-04-21T13:31:58.541Z,13.10
2019-04-21T13:34:28.358Z,13.60
2019-04-21T13:36:59.064Z,13.70
2019-04-21T13:40:16.424Z,13.70
2019-04-21T13:42:31.415Z,13.90
2019-04-21T13:45:03.009Z,14.10
2019-04-21T13:47:34.542Z,13.70
2019-04-21T13:50:06.345Z,13.80
2019-04-21T13:52:36.537Z,13.40
2019-04-21T13:55:07.601Z,13.40
2019-04-21T13:57:38.711Z,13.80
2019-04-21T14:00:08.943Z,13.80
2019-04-21T14:02:38.731Z,13.10
2019-04-21T14:05:11.540Z,12.70
2019-04-21T14:07:39.951Z,12.70
2019-04-21T14:10:12.238Z,12.90
2019-04-21T14:12:42.538Z,12.40
2019-04-21T14:15:12.551Z,12.50
2019-04-21T14:17:42.552Z,13.10
2019-04-21T14:20:13.208Z,12.70
2019-04-21T14:22:44.133Z,12.50
2019-04-21T14:25:15.188Z,12.10
2019-04-21T14:27:47.342Z,12.60
2019-04-21T14:30:16.525Z,12.40
2019-04-21T14:32:46.079Z,12.20
2019-04-21T14:35:16.802Z,11.30
2019-04-21T14:37:46.684Z,11.30
2019-04-21T14:40:23.560Z,11.30
2019-04-21T14:42:48.089Z,12.30
2019-04-21T14:45:48.504Z,11.50
2019-04-21T14:48:36.932Z,12.40
2019-04-21T14:51:23.072Z,12.10
2019-04-21T14:54:10.154Z,12.80
2019-04-21T14:56:39.636Z,13.30
2019-04-21T14:59:09.112Z,13.40
2019-04-21T15:01:39.978Z,13.70
2019-04-21T15:04:09.868Z,12.60
2019-04-21T15:06:39.410Z,11.50
2019-04-21T15:09:09.503Z,13.90
2019-04-21T15:11:40.113Z,12.60
2019-04-21T15:14:09.595Z,12.00
2019-04-21T15:16:39.035Z,12.00
2019-04-21T15:19:08.710Z,11.90
2019-04-21T15:21:38.499Z,12.20
2019-04-21T15:24:08.680Z,11.80
2019-04-21T15:26:38.184Z,12.50
2019-04-21T15:29:08.841Z,12.30
2019-04-21T15:31:41.769Z,12.50
2019-04-21T15:34:10.916Z,11.80
2019-04-21T15:36:41.784Z,12.20
2019-04-21T15:39:11.905Z,11.80
2019-04-21T15:41:42.742Z,10.70
2019-04-21T15:44:12.487Z,11.20
2019-04-21T15:46:41.957Z,10.20
2019-04-21T15:49:11.417Z,10.90
2019-04-21T15:51:42.157Z,11.00
2019-04-21T15:54:11.611Z,11.10
2019-04-21T15:56:56.425Z,11.40
2019-04-21T15:59:44.321Z,11.50
2019-04-21T16:02:32.768Z,11.50
2019-04-21T16:05:02.565Z,11.70
2019-04-21T16:07:32.154Z,11.60
2019-04-21T16:10:04.809Z,11.70
2019-04-21T16:12:33.899Z,11.80
2019-04-21T16:15:04.797Z,11.00
2019-04-21T16:17:35.230Z,11.10
2019-04-21T16:20:06.094Z,11.00
2019-04-21T16:22:36.825Z,11.50
2019-04-21T16:25:06.710Z,11.60
2019-04-21T16:27:37.225Z,11.50
2019-04-21T16:30:07.906Z,11.90
2019-04-21T16:32:38.384Z,12.20
2019-04-21T16:35:11.151Z,12.40
2019-04-21T16:37:39.579Z,12.90
2019-04-21T16:40:09.600Z,12.20
2019-04-21T16:42:40.284Z,12.50
2019-04-21T16:45:10.645Z,13.00
2019-04-21T16:47:40.076Z,12.40
2019-04-21T16:50:10.170Z,11.50
2019-04-21T16:52:45.830Z,10.70
2019-04-21T16:55:35.241Z,11.60
2019-04-21T16:58:26.595Z,11.50
2019-04-21T17:01:04.480Z,12.40
2019-04-21T17:03:30.660Z,13.40
2019-04-21T17:06:00.508Z,12.70
2019-04-21T17:08:31.728Z,12.40
2019-04-21T17:11:10.776Z,12.40
2019-04-21T17:13:33.586Z,13.40
2019-04-21T17:16:29.614Z,12.90
2019-04-21T17:18:47.562Z,12.60
2019-04-21T17:21:07.073Z,12.10
2019-04-21T17:23:37.678Z,14.20
2019-04-21T17:26:07.118Z,13.00
2019-04-21T17:28:36.533Z,12.80
2019-04-21T17:31:06.548Z,13.40
2019-04-21T17:33:37.110Z,12.80
2019-04-21T17:36:07.166Z,12.90
2019-04-21T17:38:37.016Z,13.20
2019-04-21T17:41:19.930Z,13.80
2019-04-21T17:43:39.556Z,13.60
2019-04-21T17:46:09.123Z,14.10
2019-04-21T17:48:38.773Z,15.00
2019-04-21T17:51:23.392Z,13.90
2019-04-21T17:54:02.411Z,14.00
2019-04-21T17:57:00.470Z,15.90
2019-04-21T17:59:28.171Z,14.10
2019-04-21T18:01:54.603Z,15.00
2019-04-21T18:04:24.984Z,15.50
2019-04-21T18:07:49.183Z,14.40
2019-04-21T18:10:10.009Z,14.50
2019-04-21T18:12:33.739Z,15.50
2019-04-21T18:15:00.065Z,16.10
2019-04-21T18:17:20.745Z,17.10
2019-04-21T18:19:51.762Z,15.60
2019-04-21T18:22:47.982Z,15.40
2019-04-21T18:25:32.789Z,15.80
2019-04-21T18:27:52.321Z,17.70
2019-04-21T18:30:46.811Z,16.50
2019-04-21T18:33:23.517Z,17.20
2019-04-21T18:36:21.283Z,16.30
2019-04-21T18:39:14.452Z,16.90
2019-04-21T18:41:34.464Z,17.00
2019-04-21T18:44:32.143Z,16.60
2019-04-21T18:47:12.152Z,16.80
2019-04-21T18:49:44.383Z,16.30
2019-04-21T18:52:32.130Z,16.60
2019-04-21T18:55:05.330Z,18.10
2019-04-21T18:57:33.343Z,17.40
2019-04-21T18:59:57.266Z,17.80
2019-04-21T19:02:28.202Z,17.70
2019-04-21T19:05:03.107Z,17.70
2019-04-21T19:07:48.366Z,17.70
2019-04-21T19:10:33.921Z,17.70
2019-04-21T19:15:20.106Z,17.60
2019-04-21T19:18:28.294Z,17.60
2019-04-21T19:20:25.722Z,17.50
2019-04-21T19:22:52.255Z,17.60
2019-04-21T19:25:25.349Z,17.50
2019-04-21T19:27:55.173Z,18.00
2019-04-21T19:30:36.638Z,17.70
2019-04-21T19:33:01.086Z,17.70
2019-04-21T19:35:14.921Z,17.40
2019-04-21T19:37:55.171Z,17.40
2019-04-21T19:40:39.133Z,17.50
2019-04-21T19:42:57.792Z,17.40
2019-04-21T19:45:35.344Z,17.90
2019-04-21T19:48:09.417Z,17.50
2019-04-21T19:50:40.506Z,17.50
2019-04-21T19:53:03.421Z,18.20
2019-04-21T19:55:24.406Z,18.30
2019-04-21T19:57:54.769Z,18.30
2019-04-21T20:00:24.587Z,18.70
2019-04-21T20:02:54.576Z,19.20
2019-04-21T20:05:34.969Z,19.10
2019-04-21T20:08:11.623Z,19.40
2019-04-21T20:10:48.668Z,19.60
2019-04-21T20:13:26.257Z,19.90
2019-04-21T20:15:52.475Z,20.20
2019-04-21T20:18:13.238Z,20.30
2019-04-21T20:20:31.198Z,20.30
2019-04-21T20:23:01.277Z,21.00
2019-04-21T20:25:34.659Z,21.30
2019-04-21T20:28:09.654Z,21.20
2019-04-21T20:30:52.822Z,20.80
2019-04-21T20:33:42.909Z,21.10
2019-04-21T20:35:59.325Z,20.60
2019-04-21T20:38:19.262Z,20.70
2019-04-21T20:40:45.427Z,20.50
2019-04-21T20:43:31.057Z,20.40
2019-04-21T20:46:00.430Z,20.80
2019-04-21T20:48:21.061Z,21.00
2019-04-21T20:51:03.563Z,21.40
2019-04-21T20:53:33.033Z,21.10
2019-04-21T20:55:58.168Z,21.60
2019-04-21T20:58:34.580Z,22.10
2019-04-21T21:01:22.273Z,21.70
2019-04-21T21:03:37.771Z,22.50
2019-04-21T21:05:59.860Z,22.70
2019-04-21T21:08:42.145Z,22.30
2019-04-21T21:11:00.241Z,22.70
2019-04-21T21:13:42.605Z,22.80
2019-04-21T21:21:15.154Z,23.10
2019-04-21T21:23:49.784Z,23.50
2019-04-21T21:26:23.402Z,23.30
2019-04-21T21:28:46.073Z,23.70
2019-04-21T21:31:17.704Z,22.70
2019-04-21T21:33:59.263Z,22.70
2019-04-21T21:36:20.854Z,22.70
2019-04-21T21:38:55.977Z,22.70
2019-04-21T21:41:16.599Z,22.60
2019-04-21T21:43:39.218Z,22.60
2019-04-21T21:46:24.903Z,22.60
2019-04-21T21:48:51.654Z,22.80
2019-04-21T21:51:20.543Z,23.20
2019-04-21T21:53:42.665Z,24.10
2019-04-21T21:56:12.676Z,24.80
2019-04-21T21:58:44.013Z,25.10
2019-04-21T22:01:16.724Z,25.20
2019-04-21T22:03:47.303Z,25.40
2019-04-21T22:06:21.404Z,25.50
2019-04-21T22:08:48.543Z,25.20
2019-04-21T22:11:18.091Z,25.40
2019-04-21T22:13:56.689Z,25.40
2019-04-21T22:16:21.229Z,25.30
2019-04-21T22:19:08.007Z,25.60
2019-04-21T22:21:42.607Z,25.30
2019-04-21T22:24:02.799Z,25.60
2019-04-21T22:26:25.090Z,25.30
2019-04-21T22:28:55.851Z,25.40
2019-04-21T22:31:29.991Z,25.50
2019-04-21T22:34:02.232Z,25.70
2019-04-21T22:36:42.473Z,25.80
2019-04-21T22:39:16.180Z,25.90
2019-04-21T22:41:36.313Z,26.10
2019-04-21T22:44:01.080Z,26.30
2019-04-21T22:46:30.698Z,26.60
2019-04-21T22:49:06.809Z,26.60
2019-04-21T22:51:37.439Z,26.80
2019-04-21T22:54:02.248Z,27.50
2019-04-21T22:56:33.763Z,27.90
2019-04-21T22:59:08.519Z,27.90
2019-04-21T23:01:40.166Z,28.60
2019-04-21T23:04:06.719Z,29.20
2019-04-21T23:06:37.921Z,29.60
2019-04-21T23:09:10.984Z,29.50
2019-04-21T23:11:45.633Z,29.50
2019-04-21T23:14:14.948Z,29.60
2019-04-21T23:16:45.596Z,29.60
2019-04-21T23:19:29.275Z,29.80
2019-04-21T23:22:02.457Z,30.00
2019-04-21T23:24:39.936Z,30.00
2019-04-21T23:26:59.824Z,30.10
2019-04-21T23:29:48.233Z,30.50
2019-04-21T23:32:02.996Z,31.00
2019-04-21T23:34:26.568Z,31.80
2019-04-21T23:37:00.239Z,31.70
2019-04-21T23:39:28.362Z,32.90
2019-04-21T23:41:55.962Z,33.40
2019-04-21T23:44:25.941Z,34.30
2019-04-21T23:47:00.799Z,34.40
2019-04-21T23:49:35.358Z,34.20
2019-04-21T23:52:03.078Z,34.40
2019-04-21T23:54:29.256Z,34.30
2019-04-21T23:57:05.048Z,34.30
2019-04-21T23:59:32.434Z,34.30
